createdAt,value
2023-08-15T00:04:02.212Z,100
2023-08-15T00:09:55.787Z,100
2023-08-15T00:15:51.873Z,100
2023-08-15T00:21:43.693Z,100
2023-08-15T00:27:36.656Z,100
2023-08-15T00:33:29.291Z,100
2023-08-15T00:39:21.949Z,100
2023-08-15T00:45:18.825Z,100
2023-08-15T00:51:13.844Z,100
2023-08-15T00:57:09.232Z,100
2023-08-15T01:03:04.098Z,100
2023-08-15T01:08:58.763Z,100
2023-08-15T01:14:50.604Z,100
2023-08-15T01:20:43.877Z,100
2023-08-15T01:27:44.997Z,100
2023-08-15T01:33:36.364Z,100
2023-08-15T01:39:28.787Z,100
2023-08-15T01:45:22.480Z,100
2023-08-15T01:51:14.917Z,100
2023-08-15T01:57:07.202Z,100
2023-08-15T02:03:00.389Z,100
2023-08-15T02:08:52.880Z,100
2023-08-15T02:14:45.471Z,100
2023-08-15T02:20:37.767Z,100
2023-08-15T02:26:30.150Z,100
2023-08-15T02:32:22.529Z,100
2023-08-15T02:38:15.363Z,100
2023-08-15T02:44:08.255Z,100
2023-08-15T02:50:02.278Z,100
2023-08-15T02:55:54.741Z,100
2023-08-15T03:01:47.090Z,100
2023-08-15T03:07:40.792Z,100
2023-08-15T03:13:32.536Z,100
2023-08-15T03:19:25.341Z,100
2023-08-15T03:25:17.576Z,100
2023-08-15T03:31:10.139Z,100
2023-08-15T03:37:02.730Z,100
2023-08-15T03:42:55.649Z,100
2023-08-15T03:48:47.748Z,100
2023-08-15T03:54:38.240Z,100
2023-08-15T04:00:30.172Z,100
2023-08-15T04:06:21.149Z,100
2023-08-15T04:12:12.964Z,100
2023-08-15T04:18:04.526Z,100
2023-08-15T04:23:56.748Z,100
2023-08-15T04:29:49.756Z,100
2023-08-15T04:35:43.288Z,100
2023-08-15T04:41:37.146Z,100
2023-08-15T04:47:29.438Z,100
2023-08-15T04:53:21.835Z,100
2023-08-15T04:59:17.042Z,100
2023-08-15T05:05:08.596Z,100
2023-08-15T05:11:02.169Z,100
2023-08-15T05:16:54.330Z,100
2023-08-15T05:22:46.607Z,100
2023-08-15T05:28:39.514Z,100
2023-08-15T05:34:38.025Z,100
2023-08-15T05:40:31.024Z,100
2023-08-15T05:46:23.533Z,100
2023-08-15T05:52:16.231Z,100
2023-08-15T05:58:09.698Z,100
2023-08-15T06:04:03.548Z,100
2023-08-15T06:09:57.168Z,100
2023-08-15T06:15:49.808Z,100
2023-08-15T06:21:41.522Z,100
2023-08-15T06:27:33.896Z,100
2023-08-15T06:33:26.838Z,100
2023-08-15T06:39:19.424Z,100
2023-08-15T06:45:11.962Z,100
2023-08-15T06:51:04.269Z,100
2023-08-15T06:56:58.230Z,100
2023-08-15T07:02:52.370Z,100
2023-08-15T07:08:44.798Z,100
2023-08-15T07:14:37.033Z,100
2023-08-15T07:20:34.326Z,100
2023-08-15T07:26:29.020Z,100
2023-08-15T07:32:24.677Z,100
2023-08-15T07:38:17.974Z,100
2023-08-15T07:44:12.492Z,100
2023-08-15T07:50:05.319Z,100
2023-08-15T07:55:58.268Z,100
2023-08-15T08:01:51.782Z,100
2023-08-15T08:07:44.967Z,100
2023-08-15T08:13:37.700Z,100
2023-08-15T08:19:29.877Z,100
2023-08-15T08:25:23.187Z,100
2023-08-15T08:31:15.676Z,100
2023-08-15T08:37:08.870Z,98.4
2023-08-15T08:43:02.523Z,100
2023-08-15T08:48:54.999Z,95.1
2023-08-15T08:54:58.234Z,97
2023-08-15T09:00:50.176Z,94.3
2023-08-15T09:06:45.378Z,92
2023-08-15T09:12:38.057Z,91
2023-08-15T09:18:30.739Z,91.9
2023-08-15T09:24:21.629Z,94
2023-08-15T09:30:13.841Z,92.4
2023-08-15T09:36:05.954Z,94.5
2023-08-15T09:42:01.206Z,94.7
2023-08-15T09:47:53.473Z,93.1
2023-08-15T09:53:45.864Z,96.3
2023-08-15T09:59:37.831Z,94.3
2023-08-15T10:05:31.482Z,97.8
2023-08-15T10:11:23.811Z,97
2023-08-15T10:17:16.568Z,94.8
2023-08-15T10:23:13.256Z,92.4
2023-08-15T10:29:05.557Z,95.1
2023-08-15T10:34:58.046Z,96.7
2023-08-15T10:40:51.008Z,93.5
2023-08-15T10:46:42.624Z,93.2
2023-08-15T10:52:36.563Z,90.6
2023-08-15T10:58:31.164Z,90.8
2023-08-15T11:04:23.360Z,90
2023-08-15T11:10:15.179Z,88.1
2023-08-15T11:16:07.721Z,88.2
2023-08-15T11:22:00.401Z,91
2023-08-15T11:27:52.422Z,94.4
2023-08-15T11:33:44.660Z,92.2
2023-08-15T11:39:37.450Z,88.6
2023-08-15T11:45:30.292Z,88.8
2023-08-15T11:51:21.565Z,89.1
2023-08-15T11:57:13.795Z,91.5
2023-08-15T12:03:06.703Z,91.8
2023-08-15T12:08:59.739Z,92.6
2023-08-15T12:14:54.525Z,93.5
2023-08-15T12:20:46.120Z,92.7
2023-08-15T12:26:38.228Z,91.1
2023-08-15T12:32:31.949Z,88.4
2023-08-15T12:38:25.230Z,88.4
2023-08-15T12:44:18.284Z,90.1
2023-08-15T12:50:10.288Z,92.6
2023-08-15T12:57:12.538Z,90.9
2023-08-15T13:03:03.948Z,90.8
2023-08-15T13:08:56.398Z,90.4
2023-08-15T13:14:48.849Z,89.5
2023-08-15T13:20:40.937Z,91.3
2023-08-15T13:26:33.799Z,92.2
2023-08-15T13:32:28.911Z,95.4
2023-08-15T13:38:21.466Z,94.9
2023-08-15T13:44:15.124Z,96.7
2023-08-15T13:50:08.065Z,95.8
2023-08-15T13:56:00.791Z,96.6
2023-08-15T14:01:53.350Z,95.5
2023-08-15T14:07:46.587Z,96.1
2023-08-15T14:13:38.125Z,96.1
2023-08-15T14:19:30.319Z,99.1
2023-08-15T14:25:23.214Z,99.2
2023-08-15T14:31:18.984Z,100
2023-08-15T14:37:11.820Z,99.3
2023-08-15T14:43:03.718Z,98.3
2023-08-15T14:48:56.494Z,98.5
2023-08-15T14:54:49.463Z,100
2023-08-15T15:00:43.428Z,100
2023-08-15T15:06:36.461Z,99.1
2023-08-15T15:12:29.253Z,99.1
2023-08-15T15:18:22.573Z,99.9
2023-08-15T15:24:15.812Z,100
2023-08-15T15:30:07.466Z,99
2023-08-15T15:36:02.136Z,98
2023-08-15T15:41:55.300Z,95.3
2023-08-15T15:47:48.157Z,93.8
2023-08-15T15:53:42.363Z,91.1
2023-08-15T15:59:34.734Z,93.6
2023-08-15T16:05:26.844Z,96.1
2023-08-15T16:11:22.015Z,96.8
2023-08-15T16:17:14.976Z,98.8
2023-08-15T16:23:08.737Z,94.7
2023-08-15T16:29:00.729Z,95.6
2023-08-15T16:36:05.339Z,96.7
2023-08-15T16:41:57.381Z,95.1
2023-08-15T16:47:49.546Z,96.7
2023-08-15T16:53:42.037Z,95.2
2023-08-15T16:59:35.780Z,94.2
2023-08-15T17:05:27.479Z,94
2023-08-15T17:11:19.706Z,94.8
2023-08-15T17:17:12.485Z,94
2023-08-15T17:23:04.640Z,94.5
2023-08-15T17:29:17.256Z,93.2
2023-08-15T17:35:44.219Z,93.1
2023-08-15T17:41:36.706Z,92.2
2023-08-15T17:47:34.758Z,94.6
2023-08-15T17:53:27.997Z,92
2023-08-15T17:59:19.709Z,93.9
2023-08-15T18:05:12.226Z,95.1
2023-08-15T18:11:03.538Z,98.4
2023-08-15T18:16:59.317Z,95.3
2023-08-15T18:22:50.114Z,97.3
2023-08-15T18:28:42.120Z,100
2023-08-15T18:34:33.768Z,98.4
2023-08-15T18:40:26.112Z,98.4
2023-08-15T18:46:17.901Z,98.1
2023-08-15T18:52:10.047Z,98.8
2023-08-15T18:58:02.116Z,100
2023-08-15T19:03:54.452Z,97.4
2023-08-15T19:09:46.445Z,100
2023-08-15T19:15:38.159Z,100
2023-08-15T19:21:31.005Z,100
2023-08-15T19:27:23.892Z,100
2023-08-15T19:33:16.437Z,100
2023-08-15T19:39:08.769Z,100
2023-08-15T19:45:01.158Z,100
2023-08-15T19:50:52.828Z,100
2023-08-15T19:56:44.285Z,100
2023-08-15T20:02:36.316Z,100
2023-08-15T20:08:28.513Z,100
2023-08-15T20:14:20.755Z,100
2023-08-15T20:20:20.566Z,100
2023-08-15T20:26:11.527Z,100
2023-08-15T20:32:03.338Z,100
2023-08-15T20:37:59.260Z,100
2023-08-15T20:43:50.960Z,100
2023-08-15T20:49:43.653Z,100
2023-08-15T20:55:35.865Z,100
2023-08-15T21:01:27.860Z,100
2023-08-15T21:07:20.527Z,100
2023-08-15T21:13:13.689Z,100
2023-08-15T21:19:05.944Z,100
2023-08-15T21:24:57.951Z,100
2023-08-15T21:30:50.770Z,100
2023-08-15T21:36:43.409Z,100
2023-08-15T21:42:34.470Z,100
2023-08-15T21:48:27.749Z,100
2023-08-15T21:54:20.710Z,100
2023-08-15T22:00:12.768Z,100
2023-08-15T22:06:04.692Z,100
2023-08-15T22:11:56.390Z,100
2023-08-15T22:18:00.875Z,100
2023-08-15T22:24:08.672Z,100
2023-08-15T22:30:01.163Z,100
2023-08-15T22:35:53.690Z,100
2023-08-15T22:41:46.854Z,100
2023-08-15T22:47:39.031Z,100
2023-08-15T22:53:32.102Z,100
2023-08-15T22:59:24.309Z,100
2023-08-15T23:05:16.803Z,100
2023-08-15T23:11:09.192Z,100
2023-08-15T23:17:01.571Z,100
2023-08-15T23:22:54.397Z,100
2023-08-15T23:28:46.611Z,100
2023-08-15T23:34:39.211Z,100
2023-08-15T23:40:31.693Z,100
2023-08-15T23:46:22.443Z,100
2023-08-15T23:52:13.759Z,100
2023-08-15T23:58:06.776Z,100
